sensor_id;sensor_type;location;lat;lon;timestamp;pressure;altitude;pressure_sealevel;temperature;humidity
14120;BME280;7138;49.246;9.100;2022-12-20T00:01:13;99292.72;;;4.28;94.16
14120;BME280;7138;49.246;9.100;2022-12-20T00:03:40;99299.50;;;4.27;94.15
14120;BME280;7138;49.246;9.100;2022-12-20T00:06:06;99300.41;;;4.29;94.17
14120;BME280;7138;49.246;9.100;2022-12-20T00:08:33;99305.72;;;4.34;94.27
14120;BME280;7138;49.246;9.100;2022-12-20T00:11:03;99296.44;;;4.37;94.09
14120;BME280;7138;49.246;9.100;2022-12-20T00:13:31;99274.81;;;4.29;93.59
14120;BME280;7138;49.246;9.100;2022-12-20T00:16:06;99289.69;;;4.39;93.92
14120;BME280;7138;49.246;9.100;2022-12-20T00:18:33;99280.25;;;4.38;94.13
14120;BME280;7138;49.246;9.100;2022-12-20T00:20:59;99280.22;;;4.37;93.82
14120;BME280;7138;49.246;9.100;2022-12-20T00:23:25;99291.44;;;4.40;93.99
14120;BME280;7138;49.246;9.100;2022-12-20T00:25:52;99279.44;;;4.39;93.99
14120;BME280;7138;49.246;9.100;2022-12-20T00:28:17;99276.97;;;4.43;94.49
14120;BME280;7138;49.246;9.100;2022-12-20T00:30:45;99270.88;;;4.39;94.39
14120;BME280;7138;49.246;9.100;2022-12-20T00:33:11;99272.56;;;4.38;94.47
14120;BME280;7138;49.246;9.100;2022-12-20T00:35:41;99271.50;;;4.32;94.72
14120;BME280;7138;49.246;9.100;2022-12-20T00:38:07;99258.69;;;4.32;94.61
14120;BME280;7138;49.246;9.100;2022-12-20T00:40:33;99254.41;;;4.31;95.09
14120;BME280;7138;49.246;9.100;2022-12-20T00:42:58;99254.44;;;4.32;95.11
14120;BME280;7138;49.246;9.100;2022-12-20T00:45:24;99261.13;;;4.27;95.94
14120;BME280;7138;49.246;9.100;2022-12-20T00:47:51;99257.66;;;4.25;96.52
14120;BME280;7138;49.246;9.100;2022-12-20T00:50:17;99255.22;;;4.30;95.87
14120;BME280;7138;49.246;9.100;2022-12-20T00:52:43;99239.09;;;4.32;96.78
14120;BME280;7138;49.246;9.100;2022-12-20T00:55:09;99249.50;;;4.37;96.89
14120;BME280;7138;49.246;9.100;2022-12-20T00:57:35;99239.38;;;4.41;96.92
14120;BME280;7138;49.246;9.100;2022-12-20T01:00:01;99236.22;;;4.49;96.71
14120;BME280;7138;49.246;9.100;2022-12-20T01:02:27;99249.22;;;4.55;97.09
14120;BME280;7138;49.246;9.100;2022-12-20T01:04:54;99256.13;;;4.57;97.47
14120;BME280;7138;49.246;9.100;2022-12-20T01:07:20;99257.91;;;4.60;97.32
14120;BME280;7138;49.246;9.100;2022-12-20T01:09:48;99256.28;;;4.62;97.70
14120;BME280;7138;49.246;9.100;2022-12-20T01:12:13;99259.84;;;4.67;98.28
14120;BME280;7138;49.246;9.100;2022-12-20T01:14:39;99263.38;;;4.70;98.58
14120;BME280;7138;49.246;9.100;2022-12-20T01:17:05;99254.13;;;4.75;98.72
14120;BME280;7138;49.246;9.100;2022-12-20T01:19:31;99246.53;;;4.78;98.71
14120;BME280;7138;49.246;9.100;2022-12-20T01:22:01;99251.75;;;4.81;99.49
14120;BME280;7138;49.246;9.100;2022-12-20T01:24:27;99244.22;;;4.86;99.11
14120;BME280;7138;49.246;9.100;2022-12-20T01:26:53;99233.22;;;4.90;99.04
14120;BME280;7138;49.246;9.100;2022-12-20T01:29:19;99233.28;;;4.91;99.42
14120;BME280;7138;49.246;9.100;2022-12-20T01:31:45;99238.50;;;4.94;99.04
14120;BME280;7138;49.246;9.100;2022-12-20T01:34:11;99219.69;;;4.94;99.94
14120;BME280;7138;49.246;9.100;2022-12-20T01:36:38;99225.00;;;5.00;99.38
14120;BME280;7138;49.246;9.100;2022-12-20T01:39:10;99240.47;;;5.03;99.09
14120;BME280;7138;49.246;9.100;2022-12-20T01:41:37;99232.88;;;5.06;99.08
14120;BME280;7138;49.246;9.100;2022-12-20T01:44:05;99231.31;;;5.11;98.87
14120;BME280;7138;49.246;9.100;2022-12-20T01:46:52;99240.78;;;5.14;98.62
14120;BME280;7138;49.246;9.100;2022-12-20T01:49:21;99236.56;;;5.16;98.84
14120;BME280;7138;49.246;9.100;2022-12-20T01:51:55;99241.53;;;5.10;99.56
14120;BME280;7138;49.246;9.100;2022-12-20T01:54:29;99238.13;;;5.11;99.34
14120;BME280;7138;49.246;9.100;2022-12-20T01:57:02;99245.06;;;5.13;98.76
14120;BME280;7138;49.246;9.100;2022-12-20T01:59:35;99243.31;;;5.12;99.25
14120;BME280;7138;49.246;9.100;2022-12-20T02:02:10;99238.25;;;5.15;99.37
14120;BME280;7138;49.246;9.100;2022-12-20T02:04:36;99239.16;;;5.17;98.37
14120;BME280;7138;49.246;9.100;2022-12-20T02:07:04;99234.97;;;5.19;98.70
14120;BME280;7138;49.246;9.100;2022-12-20T02:09:34;99238.44;;;5.21;98.14
14120;BME280;7138;49.246;9.100;2022-12-20T02:12:09;99225.44;;;5.15;98.52
14120;BME280;7138;49.246;9.100;2022-12-20T02:14:57;99222.84;;;5.14;98.75
14120;BME280;7138;49.246;9.100;2022-12-20T02:17:42;99222.75;;;5.11;99.37
14120;BME280;7138;49.246;9.100;2022-12-20T02:24:14;99209.03;;;5.09;99.75
14120;BME280;7138;49.246;9.100;2022-12-20T02:27:27;99196.22;;;5.09;99.25
14120;BME280;7138;49.246;9.100;2022-12-20T02:30:04;99197.03;;;5.08;99.71
14120;BME280;7138;49.246;9.100;2022-12-20T02:32:38;99186.91;;;5.12;99.67
14120;BME280;7138;49.246;9.100;2022-12-20T02:35:08;99186.13;;;5.15;100.00
14120;BME280;7138;49.246;9.100;2022-12-20T02:37:34;99184.44;;;5.15;99.42
14120;BME280;7138;49.246;9.100;2022-12-20T02:40:03;99188.84;;;5.19;99.80
14120;BME280;7138;49.246;9.100;2022-12-20T02:42:32;99179.50;;;5.21;99.37
14120;BME280;7138;49.246;9.100;2022-12-20T02:45:05;99169.22;;;5.20;99.86
14120;BME280;7138;49.246;9.100;2022-12-20T02:47:52;99163.22;;;5.19;99.86
14120;BME280;7138;49.246;9.100;2022-12-20T02:50:24;99149.22;;;5.08;99.90
14120;BME280;7138;49.246;9.100;2022-12-20T02:52:52;99162.28;;;5.17;99.84
14120;BME280;7138;49.246;9.100;2022-12-20T02:55:22;99164.03;;;5.18;100.00
14120;BME280;7138;49.246;9.100;2022-12-20T02:57:59;99160.66;;;5.19;99.31
14120;BME280;7138;49.246;9.100;2022-12-20T03:00:37;99152.09;;;5.19;99.98
14120;BME280;7138;49.246;9.100;2022-12-20T03:03:05;99160.59;;;5.18;99.75
14120;BME280;7138;49.246;9.100;2022-12-20T03:05:53;99146.06;;;5.17;99.46
14120;BME280;7138;49.246;9.100;2022-12-20T03:08:20;99145.91;;;5.12;100.00
14120;BME280;7138;49.246;9.100;2022-12-20T03:10:46;99149.38;;;5.14;99.92
14120;BME280;7138;49.246;9.100;2022-12-20T03:13:13;99143.44;;;5.15;98.83
14120;BME280;7138;49.246;9.100;2022-12-20T03:15:40;99155.38;;;5.15;99.09
14120;BME280;7138;49.246;9.100;2022-12-20T03:18:06;99141.75;;;5.16;99.53
14120;BME280;7138;49.246;9.100;2022-12-20T03:20:32;99147.75;;;5.16;99.11
14120;BME280;7138;49.246;9.100;2022-12-20T03:22:58;99145.03;;;5.12;99.21
14120;BME280;7138;49.246;9.100;2022-12-20T03:25:24;99154.41;;;5.11;99.57
14120;BME280;7138;49.246;9.100;2022-12-20T03:27:50;99169.81;;;5.11;99.61
14120;BME280;7138;49.246;9.100;2022-12-20T03:30:16;99162.97;;;5.10;99.27
14120;BME280;7138;49.246;9.100;2022-12-20T03:32:43;99160.34;;;5.09;99.69
14120;BME280;7138;49.246;9.100;2022-12-20T03:35:09;99166.34;;;5.09;99.04
14120;BME280;7138;49.246;9.100;2022-12-20T03:37:35;99148.34;;;5.08;100.00
14120;BME280;7138;49.246;9.100;2022-12-20T03:40:02;99141.53;;;5.08;99.94
14120;BME280;7138;49.246;9.100;2022-12-20T03:42:28;99149.22;;;5.08;100.00
14120;BME280;7138;49.246;9.100;2022-12-20T03:44:54;99142.47;;;5.10;100.00
14120;BME280;7138;49.246;9.100;2022-12-20T03:47:19;99154.41;;;5.10;100.00
14120;BME280;7138;49.246;9.100;2022-12-20T03:49:47;99146.66;;;5.08;99.89
14120;BME280;7138;49.246;9.100;2022-12-20T03:52:13;99144.00;;;5.05;99.63
14120;BME280;7138;49.246;9.100;2022-12-20T03:54:40;99146.56;;;5.05;99.54
14120;BME280;7138;49.246;9.100;2022-12-20T03:57:06;99146.47;;;5.02;99.62
14120;BME280;7138;49.246;9.100;2022-12-20T03:59:32;99142.19;;;5.01;99.43
14120;BME280;7138;49.246;9.100;2022-12-20T04:02:01;99134.53;;;5.03;99.72
14120;BME280;7138;49.246;9.100;2022-12-20T04:04:27;99131.09;;;5.02;99.36
14120;BME280;7138;49.246;9.100;2022-12-20T04:06:54;99130.22;;;5.02;99.54
14120;BME280;7138;49.246;9.100;2022-12-20T04:09:20;99127.56;;;4.97;99.43
14120;BME280;7138;49.246;9.100;2022-12-20T04:11:46;99129.16;;;4.93;100.00
14120;BME280;7138;49.246;9.100;2022-12-20T04:14:12;99128.88;;;4.83;100.00
14120;BME280;7138;49.246;9.100;2022-12-20T04:16:38;99124.47;;;4.79;100.00
14120;BME280;7138;49.246;9.100;2022-12-20T04:19:04;99118.44;;;4.77;100.00
14120;BME280;7138;49.246;9.100;2022-12-20T04:21:33;99121.91;;;4.79;100.00
14120;BME280;7138;49.246;9.100;2022-12-20T04:24:02;99120.13;;;4.76;100.00
14120;BME280;7138;49.246;9.100;2022-12-20T04:26:29;99129.69;;;4.82;100.00
14120;BME280;7138;49.246;9.100;2022-12-20T04:28:55;99131.53;;;4.86;100.00
14120;BME280;7138;49.246;9.100;2022-12-20T04:31:21;99113.59;;;4.86;100.00
14120;BME280;7138;49.246;9.100;2022-12-20T04:33:47;99117.78;;;4.84;100.00
14120;BME280;7138;49.246;9.100;2022-12-20T04:36:14;99111.06;;;4.87;100.00
14120;BME280;7138;49.246;9.100;2022-12-20T04:38:39;99109.44;;;4.91;100.00
14120;BME280;7138;49.246;9.100;2022-12-20T04:41:07;99102.72;;;4.94;100.00
14120;BME280;7138;49.246;9.100;2022-12-20T04:43:33;99095.06;;;4.96;100.00
14120;BME280;7138;49.246;9.100;2022-12-20T04:45:58;99090.00;;;4.97;100.00
14120;BME280;7138;49.246;9.100;2022-12-20T04:48:26;99108.88;;;5.01;100.00
14120;BME280;7138;49.246;9.100;2022-12-20T04:50:54;99107.22;;;5.03;100.00
14120;BME280;7138;49.246;9.100;2022-12-20T04:53:22;99078.72;;;4.91;100.00
14120;BME280;7138;49.246;9.100;2022-12-20T04:56:08;99097.09;;;5.08;100.00
14120;BME280;7138;49.246;9.100;2022-12-20T04:58:34;99087.78;;;5.11;100.00
14120;BME280;7138;49.246;9.100;2022-12-20T05:01:00;99075.13;;;5.16;100.00
14120;BME280;7138;49.246;9.100;2022-12-20T05:03:26;99082.91;;;5.20;100.00
14120;BME280;7138;49.246;9.100;2022-12-20T05:05:52;99083.06;;;5.25;100.00
14120;BME280;7138;49.246;9.100;2022-12-20T05:08:18;99087.38;;;5.26;100.00
14120;BME280;7138;49.246;9.100;2022-12-20T05:10:44;99080.50;;;5.25;100.00
14120;BME280;7138;49.246;9.100;2022-12-20T05:13:11;99078.03;;;5.29;100.00
14120;BME280;7138;49.246;9.100;2022-12-20T05:15:37;99066.09;;;5.30;100.00
14120;BME280;7138;49.246;9.100;2022-12-20T05:18:03;99071.25;;;5.31;100.00
14120;BME280;7138;49.246;9.100;2022-12-20T05:20:31;99070.50;;;5.35;100.00
14120;BME280;7138;49.246;9.100;2022-12-20T05:22:57;99067.16;;;5.38;100.00
14120;BME280;7138;49.246;9.100;2022-12-20T05:25:45;99061.88;;;5.32;100.00
14120;BME280;7138;49.246;9.100;2022-12-20T05:28:35;99078.47;;;5.13;100.00
14120;BME280;7138;49.246;9.100;2022-12-20T05:31:02;99081.59;;;5.03;100.00
14120;BME280;7138;49.246;9.100;2022-12-20T05:33:28;99079.13;;;5.06;100.00
14120;BME280;7138;49.246;9.100;2022-12-20T05:35:54;99065.56;;;5.10;100.00
14120;BME280;7138;49.246;9.100;2022-12-20T05:38:22;99066.34;;;5.08;100.00
14120;BME280;7138;49.246;9.100;2022-12-20T05:40:49;99064.56;;;5.05;100.00
14120;BME280;7138;49.246;9.100;2022-12-20T05:43:16;99063.84;;;5.09;100.00
14120;BME280;7138;49.246;9.100;2022-12-20T05:45:46;99063.03;;;5.12;100.00
14120;BME280;7138;49.246;9.100;2022-12-20T05:48:13;99062.31;;;5.16;100.00
14120;BME280;7138;49.246;9.100;2022-12-20T05:50:39;99045.31;;;5.19;100.00
14120;BME280;7138;49.246;9.100;2022-12-20T05:53:05;99048.84;;;5.23;100.00
14120;BME280;7138;49.246;9.100;2022-12-20T05:55:30;99048.13;;;5.28;100.00
14120;BME280;7138;49.246;9.100;2022-12-20T05:57:56;99048.13;;;5.30;100.00
14120;BME280;7138;49.246;9.100;2022-12-20T06:00:23;99046.44;;;5.30;100.00
14120;BME280;7138;49.246;9.100;2022-12-20T06:02:50;99054.06;;;5.27;100.00
14120;BME280;7138;49.246;9.100;2022-12-20T06:05:16;99049.16;;;5.36;100.00
14120;BME280;7138;49.246;9.100;2022-12-20T06:07:42;99045.00;;;5.41;100.00
14120;BME280;7138;49.246;9.100;2022-12-20T06:10:09;99050.28;;;5.47;100.00
14120;BME280;7138;49.246;9.100;2022-12-20T06:12:36;99053.88;;;5.54;100.00
14120;BME280;7138;49.246;9.100;2022-12-20T06:15:02;99053.09;;;5.57;100.00
14120;BME280;7138;49.246;9.100;2022-12-20T06:17:28;99039.50;;;5.61;100.00
14120;BME280;7138;49.246;9.100;2022-12-20T06:19:55;99046.47;;;5.66;100.00
14120;BME280;7138;49.246;9.100;2022-12-20T06:22:21;99046.53;;;5.68;100.00
14120;BME280;7138;49.246;9.100;2022-12-20T06:24:47;99041.50;;;5.72;100.00
14120;BME280;7138;49.246;9.100;2022-12-20T06:27:13;99046.75;;;5.77;100.00
14120;BME280;7138;49.246;9.100;2022-12-20T06:29:39;99036.50;;;5.77;100.00
14120;BME280;7138;49.246;9.100;2022-12-20T06:32:05;99033.00;;;5.75;100.00
14120;BME280;7138;49.246;9.100;2022-12-20T06:34:31;99027.94;;;5.76;100.00
14120;BME280;7138;49.246;9.100;2022-12-20T06:37:01;99034.81;;;5.79;100.00
14120;BME280;7138;49.246;9.100;2022-12-20T06:39:27;99033.88;;;5.75;100.00
14120;BME280;7138;49.246;9.100;2022-12-20T06:41:52;99037.28;;;5.74;100.00
14120;BME280;7138;49.246;9.100;2022-12-20T06:44:18;99037.31;;;5.76;100.00
14120;BME280;7138;49.246;9.100;2022-12-20T06:46:44;99055.41;;;5.80;100.00
14120;BME280;7138;49.246;9.100;2022-12-20T06:49:10;99040.06;;;5.83;100.00
14120;BME280;7138;49.246;9.100;2022-12-20T06:51:36;99038.34;;;5.84;100.00
14120;BME280;7138;49.246;9.100;2022-12-20T06:54:03;99042.66;;;5.83;100.00
14120;BME280;7138;49.246;9.100;2022-12-20T06:56:29;99047.00;;;5.86;100.00
14120;BME280;7138;49.246;9.100;2022-12-20T06:58:55;99043.47;;;5.84;100.00
14120;BME280;7138;49.246;9.100;2022-12-20T07:01:21;99039.09;;;5.78;100.00
14120;BME280;7138;49.246;9.100;2022-12-20T07:03:47;99037.22;;;5.71;100.00
14120;BME280;7138;49.246;9.100;2022-12-20T07:06:13;99047.56;;;5.74;100.00
14120;BME280;7138;49.246;9.100;2022-12-20T07:08:38;99040.81;;;5.79;100.00
14120;BME280;7138;49.246;9.100;2022-12-20T07:11:07;99040.91;;;5.84;100.00
14120;BME280;7138;49.246;9.100;2022-12-20T07:13:33;99041.78;;;5.84;100.00
14120;BME280;7138;49.246;9.100;2022-12-20T07:16:00;99029.03;;;5.86;100.00
14120;BME280;7138;49.246;9.100;2022-12-20T07:18:26;99030.81;;;5.88;100.00
14120;BME280;7138;49.246;9.100;2022-12-20T07:20:52;99027.44;;;5.91;100.00
14120;BME280;7138;49.246;9.100;2022-12-20T07:23:18;99023.13;;;5.90;100.00
14120;BME280;7138;49.246;9.100;2022-12-20T07:25:52;99024.78;;;5.86;100.00
14120;BME280;7138;49.246;9.100;2022-12-20T07:28:20;99024.63;;;5.80;100.00
14120;BME280;7138;49.246;9.100;2022-12-20T07:30:46;99032.38;;;5.83;100.00
14120;BME280;7138;49.246;9.100;2022-12-20T07:33:12;99036.56;;;5.80;100.00
14120;BME280;7138;49.246;9.100;2022-12-20T07:35:38;99033.78;;;5.71;100.00
14120;BME280;7138;49.246;9.100;2022-12-20T07:38:04;99037.91;;;5.66;100.00
14120;BME280;7138;49.246;9.100;2022-12-20T07:40:31;99032.72;;;5.63;100.00
14120;BME280;7138;49.246;9.100;2022-12-20T07:42:56;99041.34;;;5.66;100.00
14120;BME280;7138;49.246;9.100;2022-12-20T07:45:24;99037.22;;;5.71;99.96
14120;BME280;7138;49.246;9.100;2022-12-20T07:47:49;99035.56;;;5.75;100.00
14120;BME280;7138;49.246;9.100;2022-12-20T07:50:15;99034.00;;;5.80;100.00
14120;BME280;7138;49.246;9.100;2022-12-20T07:52:44;99030.75;;;5.85;99.64
14120;BME280;7138;49.246;9.100;2022-12-20T07:55:12;99026.47;;;5.86;99.84
14120;BME280;7138;49.246;9.100;2022-12-20T07:57:44;99023.03;;;5.85;100.00
14120;BME280;7138;49.246;9.100;2022-12-20T08:00:13;99023.84;;;5.84;100.00
14120;BME280;7138;49.246;9.100;2022-12-20T08:02:46;99026.31;;;5.81;99.81
14120;BME280;7138;49.246;9.100;2022-12-20T08:05:14;99033.16;;;5.81;99.88
14120;BME280;7138;49.246;9.100;2022-12-20T08:07:41;99034.06;;;5.83;100.00
14120;BME280;7138;49.246;9.100;2022-12-20T08:10:10;99033.31;;;5.87;100.00
14120;BME280;7138;49.246;9.100;2022-12-20T08:12:38;99039.38;;;5.89;99.85
14120;BME280;7138;49.246;9.100;2022-12-20T08:15:06;99043.72;;;5.91;100.00
14120;BME280;7138;49.246;9.100;2022-12-20T08:17:33;99030.97;;;5.96;100.00
14120;BME280;7138;49.246;9.100;2022-12-20T08:20:00;99033.66;;;6.02;99.76
14120;BME280;7138;49.246;9.100;2022-12-20T08:22:26;99029.41;;;6.02;100.00
14120;BME280;7138;49.246;9.100;2022-12-20T08:24:52;99026.91;;;6.04;100.00
14120;BME280;7138;49.246;9.100;2022-12-20T08:27:18;99033.75;;;6.05;100.00
14120;BME280;7138;49.246;9.100;2022-12-20T08:29:44;99037.25;;;6.09;100.00
14120;BME280;7138;49.246;9.100;2022-12-20T08:32:10;99032.91;;;6.04;100.00
14120;BME280;7138;49.246;9.100;2022-12-20T08:34:37;99032.91;;;6.04;99.85
14120;BME280;7138;49.246;9.100;2022-12-20T08:37:04;99008.94;;;6.05;100.00
14120;BME280;7138;49.246;9.100;2022-12-20T08:39:30;98998.66;;;6.04;99.76
14120;BME280;7138;49.246;9.100;2022-12-20T08:41:56;99003.78;;;6.04;100.00
14120;BME280;7138;49.246;9.100;2022-12-20T08:44:22;99003.88;;;6.07;100.00
14120;BME280;7138;49.246;9.100;2022-12-20T08:46:48;99003.00;;;6.08;100.00
14120;BME280;7138;49.246;9.100;2022-12-20T08:49:14;98992.81;;;6.11;100.00
14120;BME280;7138;49.246;9.100;2022-12-20T08:51:40;98989.47;;;6.14;100.00
14120;BME280;7138;49.246;9.100;2022-12-20T08:54:07;98991.22;;;6.16;100.00
14120;BME280;7138;49.246;9.100;2022-12-20T08:56:33;98984.28;;;6.11;100.00
14120;BME280;7138;49.246;9.100;2022-12-20T08:58:59;98995.50;;;6.17;100.00
14120;BME280;7138;49.246;9.100;2022-12-20T09:01:25;99004.16;;;6.21;100.00
14120;BME280;7138;49.246;9.100;2022-12-20T09:03:52;99003.94;;;6.12;100.00
14120;BME280;7138;49.246;9.100;2022-12-20T09:06:20;98987.72;;;6.13;100.00
14120;BME280;7138;49.246;9.100;2022-12-20T09:08:48;98987.81;;;6.17;100.00
14120;BME280;7138;49.246;9.100;2022-12-20T09:11:18;98976.81;;;6.23;100.00
14120;BME280;7138;49.246;9.100;2022-12-20T09:13:45;98995.63;;;6.23;100.00
14120;BME280;7138;49.246;9.100;2022-12-20T09:16:14;98987.22;;;6.29;100.00
14120;BME280;7138;49.246;9.100;2022-12-20T09:18:41;98989.06;;;6.36;100.00
14120;BME280;7138;49.246;9.100;2022-12-20T09:21:09;98985.81;;;6.44;100.00
14120;BME280;7138;49.246;9.100;2022-12-20T09:23:36;98987.72;;;6.53;100.00
14120;BME280;7138;49.246;9.100;2022-12-20T09:26:03;98988.72;;;6.61;100.00
14120;BME280;7138;49.246;9.100;2022-12-20T09:28:31;98976.03;;;6.69;100.00
14120;BME280;7138;49.246;9.100;2022-12-20T09:30:57;98976.97;;;6.74;100.00
14120;BME280;7138;49.246;9.100;2022-12-20T09:33:23;98977.09;;;6.80;100.00
14120;BME280;7138;49.246;9.100;2022-12-20T09:35:49;98982.28;;;6.83;100.00
14120;BME280;7138;49.246;9.100;2022-12-20T09:38:15;98975.56;;;6.89;100.00
14120;BME280;7138;49.246;9.100;2022-12-20T09:40:46;98968.03;;;7.00;100.00
14120;BME280;7138;49.246;9.100;2022-12-20T09:43:15;98960.41;;;7.04;100.00
14120;BME280;7138;49.246;9.100;2022-12-20T09:45:45;98965.72;;;7.15;100.00
14120;BME280;7138;49.246;9.100;2022-12-20T09:48:18;98970.19;;;7.25;100.00
14120;BME280;7138;49.246;9.100;2022-12-20T09:50:59;98972.88;;;7.31;99.60
14120;BME280;7138;49.246;9.100;2022-12-20T09:53:45;98979.03;;;7.41;100.00
14120;BME280;7138;49.246;9.100;2022-12-20T09:56:21;98981.69;;;7.47;98.93
14120;BME280;7138;49.246;9.100;2022-12-20T09:59:00;98960.97;;;7.39;98.23
14120;BME280;7138;49.246;9.100;2022-12-20T10:01:31;98971.47;;;7.50;99.19
14120;BME280;7138;49.246;9.100;2022-12-20T10:04:02;98968.06;;;7.52;98.25
14120;BME280;7138;49.246;9.100;2022-12-20T10:06:45;98966.47;;;7.60;99.63
14120;BME280;7138;49.246;9.100;2022-12-20T10:09:41;98961.44;;;7.68;98.88
14120;BME280;7138;49.246;9.100;2022-12-20T10:12:24;98960.63;;;7.70;98.84
14120;BME280;7138;49.246;9.100;2022-12-20T10:15:13;98961.53;;;7.76;97.97
14120;BME280;7138;49.246;9.100;2022-12-20T10:17:59;98958.91;;;7.71;97.24
14120;BME280;7138;49.246;9.100;2022-12-20T10:20:40;98959.69;;;7.65;97.16
14120;BME280;7138;49.246;9.100;2022-12-20T10:23:18;98957.13;;;7.65;97.28
14120;BME280;7138;49.246;9.100;2022-12-20T10:25:49;98956.25;;;7.66;97.12
14120;BME280;7138;49.246;9.100;2022-12-20T10:28:16;98946.91;;;7.72;98.25
14120;BME280;7138;49.246;9.100;2022-12-20T10:30:44;98936.72;;;7.78;98.06
14120;BME280;7138;49.246;9.100;2022-12-20T10:33:19;98944.56;;;7.87;98.63
14120;BME280;7138;49.246;9.100;2022-12-20T10:35:45;98934.31;;;7.90;98.30
14120;BME280;7138;49.246;9.100;2022-12-20T10:38:13;98924.88;;;7.92;98.30
14120;BME280;7138;49.246;9.100;2022-12-20T10:40:43;98929.28;;;7.99;98.36
14120;BME280;7138;49.246;9.100;2022-12-20T10:43:15;98924.19;;;8.03;97.69
14120;BME280;7138;49.246;9.100;2022-12-20T10:45:45;98919.94;;;8.05;97.51
14120;BME280;7138;49.246;9.100;2022-12-20T10:48:31;98922.44;;;8.01;96.62
14120;BME280;7138;49.246;9.100;2022-12-20T10:51:01;98925.03;;;8.02;97.39
14120;BME280;7138;49.246;9.100;2022-12-20T10:53:29;98917.31;;;8.04;97.06
14120;BME280;7138;49.246;9.100;2022-12-20T10:56:15;98925.09;;;8.07;96.84
14120;BME280;7138;49.246;9.100;2022-12-20T10:58:53;98920.81;;;8.09;97.34
14120;BME280;7138;49.246;9.100;2022-12-20T11:01:21;98911.38;;;8.08;97.47
14120;BME280;7138;49.246;9.100;2022-12-20T11:03:54;98914.88;;;8.11;98.13
14120;BME280;7138;49.246;9.100;2022-12-20T11:06:24;98916.59;;;8.14;98.30
14120;BME280;7138;49.246;9.100;2022-12-20T11:08:50;98907.16;;;8.16;98.23
14120;BME280;7138;49.246;9.100;2022-12-20T11:11:19;98906.34;;;8.17;98.84
14120;BME280;7138;49.246;9.100;2022-12-20T11:13:48;98897.81;;;8.22;98.56
14120;BME280;7138;49.246;9.100;2022-12-20T11:16:34;98898.81;;;8.34;98.43
14120;BME280;7138;49.246;9.100;2022-12-20T11:19:29;98892.88;;;8.39;98.10
14120;BME280;7138;49.246;9.100;2022-12-20T11:22:10;98886.09;;;8.49;98.38
14120;BME280;7138;49.246;9.100;2022-12-20T11:24:51;98872.41;;;8.53;97.85
14120;BME280;7138;49.246;9.100;2022-12-20T11:27:31;98859.59;;;8.60;97.39
14120;BME280;7138;49.246;9.100;2022-12-20T11:30:11;98859.66;;;8.65;97.22
14120;BME280;7138;49.246;9.100;2022-12-20T11:33:06;98857.13;;;8.72;97.22
14120;BME280;7138;49.246;9.100;2022-12-20T11:35:50;98859.72;;;8.75;98.50
14120;BME280;7138;49.246;9.100;2022-12-20T11:38:29;98857.25;;;8.83;98.90
14120;BME280;7138;49.246;9.100;2022-12-20T11:41:15;98857.31;;;8.94;97.66
14120;BME280;7138;49.246;9.100;2022-12-20T11:44:01;98847.03;;;8.97;96.86
14120;BME280;7138;49.246;9.100;2022-12-20T11:46:51;98838.50;;;9.04;96.74
14120;BME280;7138;49.246;9.100;2022-12-20T11:50:08;98833.38;;;9.08;96.65
14120;BME280;7138;49.246;9.100;2022-12-20T11:52:47;98820.44;;;9.04;96.95
14120;BME280;7138;49.246;9.100;2022-12-20T11:55:19;98824.81;;;9.14;96.13
14120;BME280;7138;49.246;9.100;2022-12-20T11:57:56;98828.28;;;9.19;96.16
14120;BME280;7138;49.246;9.100;2022-12-20T12:00:25;98818.00;;;9.22;95.70
14120;BME280;7138;49.246;9.100;2022-12-20T12:02:58;98815.38;;;9.19;94.53
14120;BME280;7138;49.246;9.100;2022-12-20T12:05:34;98818.84;;;9.19;94.83
14120;BME280;7138;49.246;9.100;2022-12-20T12:08:13;98824.88;;;9.20;95.14
14120;BME280;7138;49.246;9.100;2022-12-20T12:10:51;98820.56;;;9.22;94.89
14120;BME280;7138;49.246;9.100;2022-12-20T12:13:25;98824.81;;;9.15;94.29
14120;BME280;7138;49.246;9.100;2022-12-20T12:15:57;98820.41;;;9.01;94.60
14120;BME280;7138;49.246;9.100;2022-12-20T12:18:30;98819.53;;;8.97;95.63
14120;BME280;7138;49.246;9.100;2022-12-20T12:21:04;98819.50;;;8.94;96.44
14120;BME280;7138;49.246;9.100;2022-12-20T12:23:44;98813.53;;;9.00;96.75
14120;BME280;7138;49.246;9.100;2022-12-20T12:26:20;98828.19;;;9.07;97.10
14120;BME280;7138;49.246;9.100;2022-12-20T12:28:52;98805.00;;;9.08;97.09
14120;BME280;7138;49.246;9.100;2022-12-20T12:31:26;98797.34;;;9.17;96.64
14120;BME280;7138;49.246;9.100;2022-12-20T12:34:09;98792.19;;;9.20;96.78
14120;BME280;7138;49.246;9.100;2022-12-20T12:37:04;98793.88;;;9.18;96.46
14120;BME280;7138;49.246;9.100;2022-12-20T12:40:05;98782.69;;;9.12;96.25
14120;BME280;7138;49.246;9.100;2022-12-20T12:43:25;98781.81;;;9.13;96.51
14120;BME280;7138;49.246;9.100;2022-12-20T12:45:59;98769.75;;;9.07;96.43
14120;BME280;7138;49.246;9.100;2022-12-20T12:48:33;98783.59;;;9.20;96.38
14120;BME280;7138;49.246;9.100;2022-12-20T12:51:01;98792.16;;;9.14;95.98
14120;BME280;7138;49.246;9.100;2022-12-20T12:53:35;98793.00;;;9.09;96.57
14120;BME280;7138;49.246;9.100;2022-12-20T12:56:36;98800.75;;;9.12;96.46
14120;BME280;7138;49.246;9.100;2022-12-20T12:59:26;98779.19;;;9.04;95.82
14120;BME280;7138;49.246;9.100;2022-12-20T13:05:34;98749.06;;;8.98;96.36
14120;BME280;7138;49.246;9.100;2022-12-20T13:08:00;98743.91;;;9.01;96.01
14120;BME280;7138;49.246;9.100;2022-12-20T13:10:58;98742.19;;;9.03;96.51
14120;BME280;7138;49.246;9.100;2022-12-20T13:13:25;98744.81;;;9.06;96.88
14120;BME280;7138;49.246;9.100;2022-12-20T13:16:11;98745.69;;;9.13;98.07
14120;BME280;7138;49.246;9.100;2022-12-20T13:18:56;98743.16;;;9.19;97.41
14120;BME280;7138;49.246;9.100;2022-12-20T13:21:38;98740.63;;;9.23;96.96
14120;BME280;7138;49.246;9.100;2022-12-20T13:24:50;98753.56;;;9.34;96.76
14120;BME280;7138;49.246;9.100;2022-12-20T13:27:28;98744.13;;;9.38;96.34
14120;BME280;7138;49.246;9.100;2022-12-20T13:30:29;98736.38;;;9.36;96.09
14120;BME280;7138;49.246;9.100;2022-12-20T13:33:17;98739.78;;;9.32;96.21
14120;BME280;7138;49.246;9.100;2022-12-20T13:36:01;98743.25;;;9.37;96.41
14120;BME280;7138;49.246;9.100;2022-12-20T13:38:54;98742.44;;;9.47;96.20
14120;BME280;7138;49.246;9.100;2022-12-20T13:41:40;98737.31;;;9.53;96.59
14120;BME280;7138;49.246;9.100;2022-12-20T13:44:39;98736.47;;;9.54;95.66
14120;BME280;7138;49.246;9.100;2022-12-20T13:47:37;98739.03;;;9.56;95.97